sensor_id;sensor_type;location;lat;lon;timestamp;temperature;humidity
26503;DHT22;14177;51.520;6.764;2024-02-23T00:01:51;5.70;99.90
26503;DHT22;14177;51.520;6.764;2024-02-23T00:04:19;5.60;99.90
26503;DHT22;14177;51.520;6.764;2024-02-23T00:06:46;5.60;99.90
26503;DHT22;14177;51.520;6.764;2024-02-23T00:09:13;5.60;99.90
26503;DHT22;14177;51.520;6.764;2024-02-23T00:11:40;5.60;99.90
26503;DHT22;14177;51.520;6.764;2024-02-23T00:14:12;5.60;99.90
26503;DHT22;14177;51.520;6.764;2024-02-23T00:16:40;5.60;99.90
26503;DHT22;14177;51.520;6.764;2024-02-23T00:19:08;5.60;99.90
26503;DHT22;14177;51.520;6.764;2024-02-23T00:21:38;5.60;99.90
26503;DHT22;14177;51.520;6.764;2024-02-23T00:24:06;5.60;99.90
26503;DHT22;14177;51.520;6.764;2024-02-23T00:26:34;5.60;99.90
26503;DHT22;14177;51.520;6.764;2024-02-23T00:29:02;5.60;99.90
26503;DHT22;14177;51.520;6.764;2024-02-23T00:31:29;5.60;99.90
26503;DHT22;14177;51.520;6.764;2024-02-23T00:33:57;5.60;99.90
26503;DHT22;14177;51.520;6.764;2024-02-23T00:36:24;5.60;99.90
26503;DHT22;14177;51.520;6.764;2024-02-23T00:38:51;5.60;99.90
26503;DHT22;14177;51.520;6.764;2024-02-23T00:41:18;5.60;99.90
26503;DHT22;14177;51.520;6.764;2024-02-23T00:43:45;5.60;99.90
26503;DHT22;14177;51.520;6.764;2024-02-23T00:46:14;5.60;99.90
26503;DHT22;14177;51.520;6.764;2024-02-23T00:48:43;5.70;99.90
26503;DHT22;14177;51.520;6.764;2024-02-23T00:51:10;5.70;99.90
26503;DHT22;14177;51.520;6.764;2024-02-23T00:53:37;5.80;99.90
26503;DHT22;14177;51.520;6.764;2024-02-23T00:56:04;5.80;99.90
26503;DHT22;14177;51.520;6.764;2024-02-23T00:58:31;5.90;99.90
26503;DHT22;14177;51.520;6.764;2024-02-23T01:00:59;5.90;99.90
26503;DHT22;14177;51.520;6.764;2024-02-23T01:03:27;5.90;99.90
26503;DHT22;14177;51.520;6.764;2024-02-23T01:05:54;5.90;99.90
26503;DHT22;14177;51.520;6.764;2024-02-23T01:08:21;5.90;99.90
26503;DHT22;14177;51.520;6.764;2024-02-23T01:10:48;6.00;99.90
26503;DHT22;14177;51.520;6.764;2024-02-23T01:13:15;6.00;99.90
26503;DHT22;14177;51.520;6.764;2024-02-23T01:15:42;6.00;99.90
26503;DHT22;14177;51.520;6.764;2024-02-23T01:18:09;6.00;99.90
26503;DHT22;14177;51.520;6.764;2024-02-23T01:20:36;6.10;99.90
26503;DHT22;14177;51.520;6.764;2024-02-23T01:23:03;6.10;99.90
26503;DHT22;14177;51.520;6.764;2024-02-23T01:25:30;6.10;99.90
26503;DHT22;14177;51.520;6.764;2024-02-23T01:27:57;6.20;99.90
26503;DHT22;14177;51.520;6.764;2024-02-23T01:30:24;6.20;99.90
26503;DHT22;14177;51.520;6.764;2024-02-23T01:32:51;6.20;99.90
26503;DHT22;14177;51.520;6.764;2024-02-23T01:35:19;6.30;99.90
26503;DHT22;14177;51.520;6.764;2024-02-23T01:37:46;6.30;99.90
26503;DHT22;14177;51.520;6.764;2024-02-23T01:40:13;6.30;99.90
26503;DHT22;14177;51.520;6.764;2024-02-23T01:42:40;6.30;99.90
26503;DHT22;14177;51.520;6.764;2024-02-23T01:45:07;6.30;99.90
26503;DHT22;14177;51.520;6.764;2024-02-23T01:47:34;6.30;99.90
26503;DHT22;14177;51.520;6.764;2024-02-23T01:50:02;6.20;99.90
26503;DHT22;14177;51.520;6.764;2024-02-23T01:52:30;6.20;99.90
26503;DHT22;14177;51.520;6.764;2024-02-23T01:54:57;6.20;99.90
26503;DHT22;14177;51.520;6.764;2024-02-23T01:57:24;6.20;99.90
26503;DHT22;14177;51.520;6.764;2024-02-23T02:00:16;6.20;99.90
26503;DHT22;14177;51.520;6.764;2024-02-23T02:02:51;6.20;99.90
26503;DHT22;14177;51.520;6.764;2024-02-23T02:05:18;6.20;99.90
26503;DHT22;14177;51.520;6.764;2024-02-23T02:07:47;6.30;99.90
26503;DHT22;14177;51.520;6.764;2024-02-23T02:10:20;6.20;99.90
26503;DHT22;14177;51.520;6.764;2024-02-23T02:12:48;6.30;99.90
26503;DHT22;14177;51.520;6.764;2024-02-23T02:15:15;6.30;99.90
26503;DHT22;14177;51.520;6.764;2024-02-23T02:17:42;6.30;99.90
26503;DHT22;14177;51.520;6.764;2024-02-23T02:20:13;6.30;99.00
26503;DHT22;14177;51.520;6.764;2024-02-23T02:22:40;6.30;98.90
26503;DHT22;14177;51.520;6.764;2024-02-23T02:25:07;6.40;98.90
26503;DHT22;14177;51.520;6.764;2024-02-23T02:27:35;6.40;99.30
26503;DHT22;14177;51.520;6.764;2024-02-23T02:30:03;6.40;98.20
26503;DHT22;14177;51.520;6.764;2024-02-23T02:32:30;6.40;97.30
26503;DHT22;14177;51.520;6.764;2024-02-23T02:35:03;6.40;96.50
26503;DHT22;14177;51.520;6.764;2024-02-23T02:37:30;6.40;97.20
26503;DHT22;14177;51.520;6.764;2024-02-23T02:39:57;6.30;98.00
26503;DHT22;14177;51.520;6.764;2024-02-23T02:42:24;6.30;98.40
26503;DHT22;14177;51.520;6.764;2024-02-23T02:44:51;6.20;97.70
26503;DHT22;14177;51.520;6.764;2024-02-23T02:47:18;6.20;98.70
26503;DHT22;14177;51.520;6.764;2024-02-23T02:49:45;6.20;99.10
26503;DHT22;14177;51.520;6.764;2024-02-23T02:52:12;6.10;99.90
26503;DHT22;14177;51.520;6.764;2024-02-23T02:54:39;6.10;99.90
26503;DHT22;14177;51.520;6.764;2024-02-23T02:57:06;6.10;99.90
26503;DHT22;14177;51.520;6.764;2024-02-23T02:59:34;6.00;98.70
26503;DHT22;14177;51.520;6.764;2024-02-23T03:02:02;6.00;99.40
26503;DHT22;14177;51.520;6.764;2024-02-23T03:04:29;6.00;99.20
26503;DHT22;14177;51.520;6.764;2024-02-23T03:06:56;6.00;99.90
26503;DHT22;14177;51.520;6.764;2024-02-23T03:09:23;6.00;99.00
26503;DHT22;14177;51.520;6.764;2024-02-23T03:11:50;6.00;98.60
26503;DHT22;14177;51.520;6.764;2024-02-23T03:14:17;6.00;98.80
26503;DHT22;14177;51.520;6.764;2024-02-23T03:16:45;6.00;98.40
26503;DHT22;14177;51.520;6.764;2024-02-23T03:19:14;5.90;98.40
26503;DHT22;14177;51.520;6.764;2024-02-23T03:21:42;5.90;98.50
26503;DHT22;14177;51.520;6.764;2024-02-23T03:24:09;5.90;98.80
26503;DHT22;14177;51.520;6.764;2024-02-23T03:26:36;5.90;99.20
26503;DHT22;14177;51.520;6.764;2024-02-23T03:29:03;5.90;98.90
26503;DHT22;14177;51.520;6.764;2024-02-23T03:31:30;5.90;98.40
26503;DHT22;14177;51.520;6.764;2024-02-23T03:33:57;6.00;99.10
26503;DHT22;14177;51.520;6.764;2024-02-23T03:36:24;6.00;99.30
26503;DHT22;14177;51.520;6.764;2024-02-23T03:38:51;5.90;98.90
26503;DHT22;14177;51.520;6.764;2024-02-23T03:41:18;5.90;98.30
26503;DHT22;14177;51.520;6.764;2024-02-23T03:43:45;5.90;98.70
26503;DHT22;14177;51.520;6.764;2024-02-23T03:46:12;5.90;98.80
26503;DHT22;14177;51.520;6.764;2024-02-23T03:48:40;5.90;97.90
26503;DHT22;14177;51.520;6.764;2024-02-23T03:51:08;5.90;97.30
26503;DHT22;14177;51.520;6.764;2024-02-23T03:53:36;5.90;97.80
26503;DHT22;14177;51.520;6.764;2024-02-23T03:56:03;5.90;98.20
26503;DHT22;14177;51.520;6.764;2024-02-23T03:58:30;5.90;98.90
26503;DHT22;14177;51.520;6.764;2024-02-23T04:00:57;5.90;98.80
26503;DHT22;14177;51.520;6.764;2024-02-23T04:03:24;5.90;98.60
26503;DHT22;14177;51.520;6.764;2024-02-23T04:05:51;5.90;97.60
26503;DHT22;14177;51.520;6.764;2024-02-23T04:08:18;5.90;97.40
26503;DHT22;14177;51.520;6.764;2024-02-23T04:10:45;6.00;97.10
26503;DHT22;14177;51.520;6.764;2024-02-23T04:13:12;6.00;96.80
26503;DHT22;14177;51.520;6.764;2024-02-23T04:15:40;6.00;97.00
26503;DHT22;14177;51.520;6.764;2024-02-23T04:18:07;6.00;96.50
26503;DHT22;14177;51.520;6.764;2024-02-23T04:20:34;6.00;95.90
26503;DHT22;14177;51.520;6.764;2024-02-23T04:23:01;6.00;94.70
26503;DHT22;14177;51.520;6.764;2024-02-23T04:25:28;6.00;94.40
26503;DHT22;14177;51.520;6.764;2024-02-23T04:27:55;6.00;94.10
26503;DHT22;14177;51.520;6.764;2024-02-23T04:30:22;6.10;92.90
26503;DHT22;14177;51.520;6.764;2024-02-23T04:32:49;6.10;92.80
26503;DHT22;14177;51.520;6.764;2024-02-23T04:35:16;6.10;92.20
26503;DHT22;14177;51.520;6.764;2024-02-23T04:37:44;6.10;92.00
26503;DHT22;14177;51.520;6.764;2024-02-23T04:40:12;6.10;91.90
26503;DHT22;14177;51.520;6.764;2024-02-23T04:42:39;6.10;92.70
26503;DHT22;14177;51.520;6.764;2024-02-23T04:45:06;6.10;93.40
26503;DHT22;14177;51.520;6.764;2024-02-23T04:47:34;6.10;93.10
26503;DHT22;14177;51.520;6.764;2024-02-23T04:50:01;6.10;93.20
26503;DHT22;14177;51.520;6.764;2024-02-23T04:52:30;6.20;92.00
26503;DHT22;14177;51.520;6.764;2024-02-23T04:54:57;6.20;91.80
26503;DHT22;14177;51.520;6.764;2024-02-23T04:57:24;6.20;91.90
26503;DHT22;14177;51.520;6.764;2024-02-23T04:59:51;6.20;91.70
26503;DHT22;14177;51.520;6.764;2024-02-23T05:02:18;6.20;91.70
26503;DHT22;14177;51.520;6.764;2024-02-23T05:04:45;6.10;92.20
26503;DHT22;14177;51.520;6.764;2024-02-23T05:07:13;6.10;92.10
26503;DHT22;14177;51.520;6.764;2024-02-23T05:09:40;6.10;91.10
26503;DHT22;14177;51.520;6.764;2024-02-23T05:12:08;6.20;90.90
26503;DHT22;14177;51.520;6.764;2024-02-23T05:14:35;6.10;90.70
26503;DHT22;14177;51.520;6.764;2024-02-23T05:17:02;6.10;91.00
26503;DHT22;14177;51.520;6.764;2024-02-23T05:19:30;6.10;90.90
26503;DHT22;14177;51.520;6.764;2024-02-23T05:21:57;6.10;90.60
26503;DHT22;14177;51.520;6.764;2024-02-23T05:24:24;6.10;90.40
26503;DHT22;14177;51.520;6.764;2024-02-23T05:26:52;6.10;90.10
26503;DHT22;14177;51.520;6.764;2024-02-23T05:29:19;6.10;89.80
26503;DHT22;14177;51.520;6.764;2024-02-23T05:31:51;6.10;89.80
26503;DHT22;14177;51.520;6.764;2024-02-23T05:34:19;6.10;90.10
26503;DHT22;14177;51.520;6.764;2024-02-23T05:36:47;6.10;90.40
26503;DHT22;14177;51.520;6.764;2024-02-23T05:39:14;6.00;90.10
26503;DHT22;14177;51.520;6.764;2024-02-23T05:41:44;6.10;89.30
26503;DHT22;14177;51.520;6.764;2024-02-23T05:44:11;6.10;87.70
26503;DHT22;14177;51.520;6.764;2024-02-23T05:46:42;6.10;88.00
26503;DHT22;14177;51.520;6.764;2024-02-23T05:49:09;6.10;87.60
26503;DHT22;14177;51.520;6.764;2024-02-23T05:51:36;6.10;86.20
26503;DHT22;14177;51.520;6.764;2024-02-23T05:54:03;6.20;85.40
26503;DHT22;14177;51.520;6.764;2024-02-23T05:56:31;6.10;87.00
26503;DHT22;14177;51.520;6.764;2024-02-23T05:58:58;6.10;87.40
26503;DHT22;14177;51.520;6.764;2024-02-23T06:01:25;6.10;87.80
26503;DHT22;14177;51.520;6.764;2024-02-23T06:03:52;6.20;88.60
26503;DHT22;14177;51.520;6.764;2024-02-23T06:06:21;6.10;89.80
26503;DHT22;14177;51.520;6.764;2024-02-23T06:08:48;6.10;89.50
26503;DHT22;14177;51.520;6.764;2024-02-23T06:11:16;6.20;89.20
26503;DHT22;14177;51.520;6.764;2024-02-23T06:13:43;6.20;89.20
26503;DHT22;14177;51.520;6.764;2024-02-23T06:16:11;6.20;87.70
26503;DHT22;14177;51.520;6.764;2024-02-23T06:18:38;6.20;87.50
26503;DHT22;14177;51.520;6.764;2024-02-23T06:21:14;6.20;88.00
26503;DHT22;14177;51.520;6.764;2024-02-23T06:23:42;6.20;86.70
26503;DHT22;14177;51.520;6.764;2024-02-23T06:26:10;6.30;85.30
26503;DHT22;14177;51.520;6.764;2024-02-23T06:28:39;6.30;85.00
26503;DHT22;14177;51.520;6.764;2024-02-23T06:31:09;6.30;84.30
26503;DHT22;14177;51.520;6.764;2024-02-23T06:33:36;6.30;82.90
26503;DHT22;14177;51.520;6.764;2024-02-23T06:36:04;6.30;82.00
26503;DHT22;14177;51.520;6.764;2024-02-23T06:38:31;6.30;81.00
26503;DHT22;14177;51.520;6.764;2024-02-23T06:40:58;6.30;80.00
26503;DHT22;14177;51.520;6.764;2024-02-23T06:43:25;6.40;80.10
26503;DHT22;14177;51.520;6.764;2024-02-23T06:45:53;6.40;79.90
26503;DHT22;14177;51.520;6.764;2024-02-23T06:48:20;6.30;80.30
26503;DHT22;14177;51.520;6.764;2024-02-23T06:50:47;6.30;80.20
26503;DHT22;14177;51.520;6.764;2024-02-23T06:53:14;6.30;79.60
26503;DHT22;14177;51.520;6.764;2024-02-23T06:55:41;6.40;79.10
26503;DHT22;14177;51.520;6.764;2024-02-23T06:58:08;6.40;77.50
26503;DHT22;14177;51.520;6.764;2024-02-23T07:00:37;6.40;76.90
26503;DHT22;14177;51.520;6.764;2024-02-23T07:03:05;6.40;77.70
26503;DHT22;14177;51.520;6.764;2024-02-23T07:05:32;6.40;78.80
26503;DHT22;14177;51.520;6.764;2024-02-23T07:07:59;6.40;78.80
26503;DHT22;14177;51.520;6.764;2024-02-23T07:10:26;6.50;77.50
26503;DHT22;14177;51.520;6.764;2024-02-23T07:12:53;6.50;77.50
26503;DHT22;14177;51.520;6.764;2024-02-23T07:15:21;6.50;78.60
26503;DHT22;14177;51.520;6.764;2024-02-23T07:17:48;6.50;76.10
26503;DHT22;14177;51.520;6.764;2024-02-23T07:20:15;6.60;76.30
26503;DHT22;14177;51.520;6.764;2024-02-23T07:22:44;6.60;76.20
26503;DHT22;14177;51.520;6.764;2024-02-23T07:25:19;6.60;76.00
26503;DHT22;14177;51.520;6.764;2024-02-23T07:27:49;6.60;75.30
26503;DHT22;14177;51.520;6.764;2024-02-23T07:30:17;6.60;72.60
26503;DHT22;14177;51.520;6.764;2024-02-23T07:32:44;6.70;73.50
26503;DHT22;14177;51.520;6.764;2024-02-23T07:35:18;6.70;73.60
26503;DHT22;14177;51.520;6.764;2024-02-23T07:37:46;6.90;71.40
26503;DHT22;14177;51.520;6.764;2024-02-23T07:40:13;7.00;64.80
26503;DHT22;14177;51.520;6.764;2024-02-23T07:42:44;7.10;61.90
26503;DHT22;14177;51.520;6.764;2024-02-23T07:45:12;7.20;62.90
26503;DHT22;14177;51.520;6.764;2024-02-23T07:47:39;7.20;61.20
26503;DHT22;14177;51.520;6.764;2024-02-23T07:50:06;7.50;58.40
26503;DHT22;14177;51.520;6.764;2024-02-23T07:52:34;7.50;54.00
26503;DHT22;14177;51.520;6.764;2024-02-23T07:55:02;7.40;56.00
26503;DHT22;14177;51.520;6.764;2024-02-23T07:57:32;7.30;57.80
26503;DHT22;14177;51.520;6.764;2024-02-23T07:59:59;7.30;58.30
26503;DHT22;14177;51.520;6.764;2024-02-23T08:02:26;7.30;60.20
26503;DHT22;14177;51.520;6.764;2024-02-23T08:04:54;7.20;58.50
26503;DHT22;14177;51.520;6.764;2024-02-23T08:07:21;7.20;58.60
26503;DHT22;14177;51.520;6.764;2024-02-23T08:09:49;7.20;61.40
26503;DHT22;14177;51.520;6.764;2024-02-23T08:12:16;7.30;60.90
26503;DHT22;14177;51.520;6.764;2024-02-23T08:14:43;7.50;53.30
26503;DHT22;14177;51.520;6.764;2024-02-23T08:17:12;7.60;49.00
26503;DHT22;14177;51.520;6.764;2024-02-23T08:19:39;8.10;56.30
26503;DHT22;14177;51.520;6.764;2024-02-23T08:22:06;8.30;35.80
26503;DHT22;14177;51.520;6.764;2024-02-23T08:24:33;8.40;30.70
26503;DHT22;14177;51.520;6.764;2024-02-23T08:27:00;8.60;35.00
26503;DHT22;14177;51.520;6.764;2024-02-23T08:29:27;8.60;25.90
26503;DHT22;14177;51.520;6.764;2024-02-23T08:31:54;8.80;24.60
26503;DHT22;14177;51.520;6.764;2024-02-23T08:34:21;8.90;64.60
26503;DHT22;14177;51.520;6.764;2024-02-23T08:36:48;8.90;99.90
26503;DHT22;14177;51.520;6.764;2024-02-23T08:39:15;9.10;99.90
26503;DHT22;14177;51.520;6.764;2024-02-23T08:41:42;9.30;99.90
26503;DHT22;14177;51.520;6.764;2024-02-23T08:44:09;9.40;99.90
26503;DHT22;14177;51.520;6.764;2024-02-23T08:46:36;9.30;99.90
26503;DHT22;14177;51.520;6.764;2024-02-23T08:49:06;9.20;99.90
26503;DHT22;14177;51.520;6.764;2024-02-23T08:51:33;9.70;99.90
26503;DHT22;14177;51.520;6.764;2024-02-23T08:54:00;9.60;99.90
26503;DHT22;14177;51.520;6.764;2024-02-23T08:56:31;9.60;99.90
26503;DHT22;14177;51.520;6.764;2024-02-23T08:58:59;9.20;99.90
26503;DHT22;14177;51.520;6.764;2024-02-23T09:01:26;9.20;99.90
26503;DHT22;14177;51.520;6.764;2024-02-23T09:03:53;9.00;99.90
26503;DHT22;14177;51.520;6.764;2024-02-23T09:06:21;8.80;99.90
26503;DHT22;14177;51.520;6.764;2024-02-23T09:08:49;8.70;99.90
26503;DHT22;14177;51.520;6.764;2024-02-23T09:11:16;8.70;99.90
26503;DHT22;14177;51.520;6.764;2024-02-23T09:13:43;8.60;99.90
26503;DHT22;14177;51.520;6.764;2024-02-23T09:16:10;8.40;99.90
26503;DHT22;14177;51.520;6.764;2024-02-23T09:18:37;8.40;99.90
26503;DHT22;14177;51.520;6.764;2024-02-23T09:21:04;8.30;99.90
26503;DHT22;14177;51.520;6.764;2024-02-23T09:23:31;8.50;99.90
26503;DHT22;14177;51.520;6.764;2024-02-23T09:25:59;8.70;99.90
26503;DHT22;14177;51.520;6.764;2024-02-23T09:28:27;9.00;99.90
26503;DHT22;14177;51.520;6.764;2024-02-23T09:30:56;9.00;99.90
26503;DHT22;14177;51.520;6.764;2024-02-23T09:33:24;8.70;99.90
26503;DHT22;14177;51.520;6.764;2024-02-23T09:35:51;8.70;99.90
26503;DHT22;14177;51.520;6.764;2024-02-23T09:38:18;8.70;99.90
26503;DHT22;14177;51.520;6.764;2024-02-23T09:40:46;8.60;99.90
26503;DHT22;14177;51.520;6.764;2024-02-23T09:43:14;8.60;99.90
26503;DHT22;14177;51.520;6.764;2024-02-23T09:45:44;8.50;99.90
26503;DHT22;14177;51.520;6.764;2024-02-23T09:48:14;8.40;99.90
26503;DHT22;14177;51.520;6.764;2024-02-23T09:50:44;8.30;99.90
26503;DHT22;14177;51.520;6.764;2024-02-23T09:53:13;8.20;99.90
26503;DHT22;14177;51.520;6.764;2024-02-23T09:55:42;8.20;99.90
26503;DHT22;14177;51.520;6.764;2024-02-23T09:58:12;8.30;99.90
26503;DHT22;14177;51.520;6.764;2024-02-23T10:00:43;8.30;99.90
26503;DHT22;14177;51.520;6.764;2024-02-23T10:03:10;8.20;99.90
26503;DHT22;14177;51.520;6.764;2024-02-23T10:05:37;8.30;99.90
26503;DHT22;14177;51.520;6.764;2024-02-23T10:08:08;8.20;99.90
26503;DHT22;14177;51.520;6.764;2024-02-23T10:10:37;8.30;99.90
26503;DHT22;14177;51.520;6.764;2024-02-23T10:13:05;8.30;99.90
26503;DHT22;14177;51.520;6.764;2024-02-23T10:15:32;8.30;99.90
26503;DHT22;14177;51.520;6.764;2024-02-23T10:17:59;8.30;99.90
26503;DHT22;14177;51.520;6.764;2024-02-23T10:20:27;8.40;99.90
26503;DHT22;14177;51.520;6.764;2024-02-23T10:22:54;8.50;99.90
26503;DHT22;14177;51.520;6.764;2024-02-23T10:25:22;8.30;99.90
26503;DHT22;14177;51.520;6.764;2024-02-23T10:27:49;8.40;99.90
26503;DHT22;14177;51.520;6.764;2024-02-23T10:30:16;8.30;99.90
26503;DHT22;14177;51.520;6.764;2024-02-23T10:32:43;8.30;99.90
26503;DHT22;14177;51.520;6.764;2024-02-23T10:35:16;8.30;99.90
26503;DHT22;14177;51.520;6.764;2024-02-23T10:37:44;8.30;99.90
26503;DHT22;14177;51.520;6.764;2024-02-23T10:40:16;8.40;99.90
26503;DHT22;14177;51.520;6.764;2024-02-23T10:42:45;8.40;99.90
26503;DHT22;14177;51.520;6.764;2024-02-23T10:45:21;8.40;99.90
26503;DHT22;14177;51.520;6.764;2024-02-23T10:47:49;8.40;99.90
26503;DHT22;14177;51.520;6.764;2024-02-23T10:50:18;8.40;99.90
26503;DHT22;14177;51.520;6.764;2024-02-23T10:52:46;8.40;99.90
26503;DHT22;14177;51.520;6.764;2024-02-23T10:55:14;8.40;99.90
26503;DHT22;14177;51.520;6.764;2024-02-23T10:57:41;8.40;99.90
26503;DHT22;14177;51.520;6.764;2024-02-23T11:00:09;8.50;99.90
26503;DHT22;14177;51.520;6.764;2024-02-23T11:02:45;8.40;99.90
26503;DHT22;14177;51.520;6.764;2024-02-23T11:05:16;8.40;99.90
26503;DHT22;14177;51.520;6.764;2024-02-23T11:07:46;8.50;99.90
26503;DHT22;14177;51.520;6.764;2024-02-23T11:10:16;8.50;99.90
26503;DHT22;14177;51.520;6.764;2024-02-23T11:12:44;8.40;99.90
26503;DHT22;14177;51.520;6.764;2024-02-23T11:15:26;8.50;99.90
26503;DHT22;14177;51.520;6.764;2024-02-23T11:17:55;8.50;99.90
26503;DHT22;14177;51.520;6.764;2024-02-23T11:20:22;8.50;99.90
26503;DHT22;14177;51.520;6.764;2024-02-23T11:22:56;8.50;99.90
26503;DHT22;14177;51.520;6.764;2024-02-23T11:25:29;8.50;99.90
26503;DHT22;14177;51.520;6.764;2024-02-23T11:27:56;8.50;99.90
26503;DHT22;14177;51.520;6.764;2024-02-23T11:30:26;8.50;99.90
26503;DHT22;14177;51.520;6.764;2024-02-23T11:32:59;8.40;99.90
26503;DHT22;14177;51.520;6.764;2024-02-23T11:35:27;8.50;99.90
26503;DHT22;14177;51.520;6.764;2024-02-23T11:37:55;8.50;99.90
26503;DHT22;14177;51.520;6.764;2024-02-23T11:40:30;8.50;99.90
26503;DHT22;14177;51.520;6.764;2024-02-23T11:42:58;8.50;99.90
26503;DHT22;14177;51.520;6.764;2024-02-23T11:45:30;8.50;99.90
26503;DHT22;14177;51.520;6.764;2024-02-23T11:47:58;8.50;99.90
26503;DHT22;14177;51.520;6.764;2024-02-23T11:50:26;8.50;99.90
26503;DHT22;14177;51.520;6.764;2024-02-23T11:52:53;8.50;99.90
26503;DHT22;14177;51.520;6.764;2024-02-23T11:55:21;8.60;99.90
26503;DHT22;14177;51.520;6.764;2024-02-23T11:57:50;8.50;99.90
26503;DHT22;14177;51.520;6.764;2024-02-23T12:00:31;8.60;99.90
26503;DHT22;14177;51.520;6.764;2024-02-23T12:02:58;8.60;99.90
26503;DHT22;14177;51.520;6.764;2024-02-23T12:05:26;8.60;99.90
26503;DHT22;14177;51.520;6.764;2024-02-23T12:07:54;8.60;99.90
26503;DHT22;14177;51.520;6.764;2024-02-23T12:10:22;8.70;99.90
26503;DHT22;14177;51.520;6.764;2024-02-23T12:12:49;8.70;99.90
26503;DHT22;14177;51.520;6.764;2024-02-23T12:15:16;8.70;99.90
26503;DHT22;14177;51.520;6.764;2024-02-23T12:17:50;8.80;99.90
26503;DHT22;14177;51.520;6.764;2024-02-23T12:20:17;8.90;99.90
26503;DHT22;14177;51.520;6.764;2024-02-23T12:22:45;8.90;99.90
26503;DHT22;14177;51.520;6.764;2024-02-23T12:25:14;8.90;99.90
26503;DHT22;14177;51.520;6.764;2024-02-23T12:27:41;9.10;99.90
26503;DHT22;14177;51.520;6.764;2024-02-23T12:30:14;9.40;99.90
26503;DHT22;14177;51.520;6.764;2024-02-23T12:32:45;9.40;99.90
26503;DHT22;14177;51.520;6.764;2024-02-23T12:35:12;9.40;99.90
26503;DHT22;14177;51.520;6.764;2024-02-23T12:37:41;9.30;99.90
26503;DHT22;14177;51.520;6.764;2024-02-23T12:40:11;9.50;99.90
26503;DHT22;14177;51.520;6.764;2024-02-23T12:42:39;9.60;99.90
26503;DHT22;14177;51.520;6.764;2024-02-23T12:45:06;9.60;99.90
26503;DHT22;14177;51.520;6.764;2024-02-23T12:47:34;9.50;99.90
26503;DHT22;14177;51.520;6.764;2024-02-23T12:50:01;9.50;99.90
26503;DHT22;14177;51.520;6.764;2024-02-23T12:52:28;9.60;99.90
26503;DHT22;14177;51.520;6.764;2024-02-23T12:54:55;9.40;99.90
26503;DHT22;14177;51.520;6.764;2024-02-23T12:57:22;9.50;99.90
26503;DHT22;14177;51.520;6.764;2024-02-23T12:59:50;9.50;99.90
26503;DHT22;14177;51.520;6.764;2024-02-23T13:02:17;9.50;99.90
26503;DHT22;14177;51.520;6.764;2024-02-23T13:04:44;9.50;99.90
26503;DHT22;14177;51.520;6.764;2024-02-23T13:07:16;9.40;99.90
26503;DHT22;14177;51.520;6.764;2024-02-23T13:09:44;9.30;99.90
26503;DHT22;14177;51.520;6.764;2024-02-23T13:12:11;9.30;99.90
26503;DHT22;14177;51.520;6.764;2024-02-23T13:14:39;9.30;99.90
26503;DHT22;14177;51.520;6.764;2024-02-23T13:17:06;9.30;99.90
26503;DHT22;14177;51.520;6.764;2024-02-23T13:19:33;9.30;99.90
26503;DHT22;14177;51.520;6.764;2024-02-23T13:22:00;9.30;99.90
26503;DHT22;14177;51.520;6.764;2024-02-23T13:24:27;9.30;99.90
26503;DHT22;14177;51.520;6.764;2024-02-23T13:26:55;9.20;99.90
26503;DHT22;14177;51.520;6.764;2024-02-23T13:29:22;9.30;99.90
26503;DHT22;14177;51.520;6.764;2024-02-23T13:31:49;9.30;99.90
26503;DHT22;14177;51.520;6.764;2024-02-23T13:34:16;9.30;99.90
26503;DHT22;14177;51.520;6.764;2024-02-23T13:36:45;9.30;99.90
26503;DHT22;14177;51.520;6.764;2024-02-23T13:39:12;9.30;99.90
26503;DHT22;14177;51.520;6.764;2024-02-23T13:41:39;9.30;99.90
26503;DHT22;14177;51.520;6.764;2024-02-23T13:44:07;9.30;99.90
26503;DHT22;14177;51.520;6.764;2024-02-23T13:46:38;9.30;99.90
26503;DHT22;14177;51.520;6.764;2024-02-23T13:49:07;9.30;99.90
26503;DHT22;14177;51.520;6.764;2024-02-23T13:51:35;9.20;99.90
26503;DHT22;14177;51.520;6.764;2024-02-23T13:54:03;9.20;99.90
26503;DHT22;14177;51.520;6.764;2024-02-23T13:56:30;9.20;99.90
26503;DHT22;14177;51.520;6.764;2024-02-23T13:58:57;9.20;99.90
26503;DHT22;14177;51.520;6.764;2024-02-23T14:01:24;9.20;99.90
26503;DHT22;14177;51.520;6.764;2024-02-23T14:03:51;9.20;99.90
26503;DHT22;14177;51.520;6.764;2024-02-23T14:06:19;9.20;99.90
26503;DHT22;14177;51.520;6.764;2024-02-23T14:08:46;9.20;99.90
26503;DHT22;14177;51.520;6.764;2024-02-23T14:11:14;9.30;99.90
26503;DHT22;14177;51.520;6.764;2024-02-23T14:13:42;9.30;99.90
26503;DHT22;14177;51.520;6.764;2024-02-23T14:16:13;9.30;99.90
26503;DHT22;14177;51.520;6.764;2024-02-23T14:18:40;9.30;99.90
26503;DHT22;14177;51.520;6.764;2024-02-23T14:21:09;9.30;99.90
26503;DHT22;14177;51.520;6.764;2024-02-23T14:23:37;9.40;99.90
26503;DHT22;14177;51.520;6.764;2024-02-23T14:26:04;9.40;99.90
26503;DHT22;14177;51.520;6.764;2024-02-23T14:28:31;9.40;99.90
26503;DHT22;14177;51.520;6.764;2024-02-23T14:30:58;9.40;99.90
26503;DHT22;14177;51.520;6.764;2024-02-23T14:33:26;9.40;99.90
26503;DHT22;14177;51.520;6.764;2024-02-23T14:35:53;9.50;99.90
26503;DHT22;14177;51.520;6.764;2024-02-23T14:38:22;9.60;99.90
26503;DHT22;14177;51.520;6.764;2024-02-23T14:40:49;9.60;99.90
26503;DHT22;14177;51.520;6.764;2024-02-23T14:43:16;9.60;99.90
26503;DHT22;14177;51.520;6.764;2024-02-23T14:45:45;9.60;99.90
26503;DHT22;14177;51.520;6.764;2024-02-23T14:48:12;9.60;99.90
26503;DHT22;14177;51.520;6.764;2024-02-23T14:50:40;9.70;99.90
26503;DHT22;14177;51.520;6.764;2024-02-23T14:53:07;9.70;99.90
26503;DHT22;14177;51.520;6.764;2024-02-23T14:55:35;9.80;99.90
26503;DHT22;14177;51.520;6.764;2024-02-23T14:58:02;9.80;99.90
26503;DHT22;14177;51.520;6.764;2024-02-23T15:00:29;9.90;99.90
26503;DHT22;14177;51.520;6.764;2024-02-23T15:02:56;9.90;99.90
26503;DHT22;14177;51.520;6.764;2024-02-23T15:05:23;9.90;99.90
26503;DHT22;14177;51.520;6.764;2024-02-23T15:07:51;9.90;99.90
26503;DHT22;14177;51.520;6.764;2024-02-23T15:10:18;9.80;99.90
26503;DHT22;14177;51.520;6.764;2024-02-23T15:12:45;9.80;99.90
26503;DHT22;14177;51.520;6.764;2024-02-23T15:15:12;9.80;99.90
26503;DHT22;14177;51.520;6.764;2024-02-23T15:17:40;9.80;99.90
26503;DHT22;14177;51.520;6.764;2024-02-23T15:20:09;9.80;99.90
26503;DHT22;14177;51.520;6.764;2024-02-23T15:22:37;10.00;99.90
26503;DHT22;14177;51.520;6.764;2024-02-23T15:25:09;10.10;99.90
26503;DHT22;14177;51.520;6.764;2024-02-23T15:27:36;10.10;99.90
26503;DHT22;14177;51.520;6.764;2024-02-23T15:30:05;10.10;99.90
26503;DHT22;14177;51.520;6.764;2024-02-23T15:32:36;9.80;99.90
26503;DHT22;14177;51.520;6.764;2024-02-23T15:35:04;9.60;99.90
26503;DHT22;14177;51.520;6.764;2024-02-23T15:37:31;9.70;99.90
26503;DHT22;14177;51.520;6.764;2024-02-23T15:39:59;9.70;99.90
26503;DHT22;14177;51.520;6.764;2024-02-23T15:42:26;9.90;99.90
26503;DHT22;14177;51.520;6.764;2024-02-23T15:44:53;9.70;99.90
26503;DHT22;14177;51.520;6.764;2024-02-23T15:47:22;9.50;99.90
26503;DHT22;14177;51.520;6.764;2024-02-23T15:49:49;9.20;99.90